createdAt,value
2019-02-14T00:00:32.806Z,7.70
2019-02-14T00:01:32.803Z,7.90
2019-02-14T00:02:32.805Z,7.70
2019-02-14T00:03:32.817Z,7.80
2019-02-14T00:04:32.771Z,8.30
2019-02-14T00:05:32.767Z,7.50
2019-02-14T00:06:32.747Z,8.10
2019-02-14T00:07:32.731Z,7.60
2019-02-14T00:08:32.749Z,7.90
2019-02-14T00:09:32.715Z,7.80
2019-02-14T00:10:32.717Z,7.40
2019-02-14T00:11:32.693Z,8.40
2019-02-14T00:12:33.518Z,8.20
2019-02-14T00:13:32.695Z,7.80
2019-02-14T00:14:32.688Z,7.80
2019-02-14T00:15:32.679Z,7.80
2019-02-14T00:16:32.659Z,7.10
2019-02-14T00:17:32.621Z,8.00
2019-02-14T00:18:32.635Z,7.40
2019-02-14T00:19:32.615Z,7.50
2019-02-14T00:20:32.594Z,7.70
2019-02-14T00:21:32.665Z,7.50
2019-02-14T00:22:32.607Z,7.50
2019-02-14T00:23:32.587Z,7.40
2019-02-14T00:24:32.557Z,7.90
2019-02-14T00:25:32.538Z,7.60
2019-02-14T00:26:32.543Z,7.30
2019-02-14T00:27:32.530Z,8.30
2019-02-14T00:28:32.527Z,7.50
2019-02-14T00:29:32.502Z,8.00
2019-02-14T00:30:32.519Z,7.50
2019-02-14T00:31:32.502Z,7.70
2019-02-14T00:32:32.462Z,6.80
2019-02-14T00:33:32.480Z,7.30
2019-02-14T00:34:32.448Z,7.10
2019-02-14T00:35:32.441Z,7.20
2019-02-14T00:36:32.446Z,7.10
2019-02-14T00:37:32.459Z,7.60
2019-02-14T00:38:32.405Z,7.00
2019-02-14T00:39:32.393Z,7.20
2019-02-14T00:40:32.394Z,6.90
2019-02-14T00:41:32.387Z,6.90
2019-02-14T00:42:32.388Z,7.40
2019-02-14T00:43:32.416Z,7.30
2019-02-14T00:44:32.349Z,7.00
2019-02-14T00:45:32.341Z,7.40
2019-02-14T00:46:32.349Z,7.20
2019-02-14T00:47:32.313Z,6.90
2019-02-14T00:48:32.315Z,7.50
2019-02-14T00:49:32.332Z,7.30
2019-02-14T00:50:32.280Z,7.40
2019-02-14T00:51:32.274Z,7.20
2019-02-14T00:52:32.344Z,7.30
2019-02-14T00:53:32.263Z,6.80
2019-02-14T00:54:32.289Z,7.10
2019-02-14T00:55:32.224Z,7.20
2019-02-14T00:56:32.266Z,7.10
2019-02-14T00:57:32.263Z,7.00
2019-02-14T00:58:32.221Z,7.50
2019-02-14T00:59:32.188Z,7.90
2019-02-14T01:00:32.176Z,7.30
2019-02-14T01:01:32.190Z,7.30
2019-02-14T01:02:32.201Z,7.00
2019-02-14T01:03:32.221Z,7.10
2019-02-14T01:04:32.133Z,7.40
2019-02-14T01:05:33.818Z,6.80
2019-02-14T01:06:32.127Z,7.00
2019-02-14T01:07:32.155Z,6.80
2019-02-14T01:08:32.146Z,7.10
2019-02-14T01:09:32.121Z,7.10
2019-02-14T01:10:32.101Z,7.30
2019-02-14T01:11:32.054Z,7.20
2019-02-14T01:12:32.220Z,7.70
2019-02-14T01:13:32.089Z,7.00
2019-02-14T01:14:32.026Z,7.00
2019-02-14T01:15:32.054Z,7.20
2019-02-14T01:16:31.997Z,6.70
2019-02-14T01:17:32.004Z,7.20
2019-02-14T01:18:32.032Z,7.20
2019-02-14T01:19:32.044Z,6.70
2019-02-14T01:20:31.980Z,6.90
2019-02-14T01:21:31.956Z,6.90
2019-02-14T01:22:31.936Z,7.00
2019-02-14T01:23:31.945Z,7.00
2019-02-14T01:24:31.934Z,6.70
2019-02-14T01:25:31.912Z,6.70
2019-02-14T01:26:31.906Z,7.10
2019-02-14T01:27:31.883Z,6.90
2019-02-14T01:28:31.896Z,6.50
2019-02-14T01:29:31.906Z,6.90
2019-02-14T01:30:31.862Z,7.20
2019-02-14T01:31:31.864Z,7.00
2019-02-14T01:32:31.853Z,6.50
2019-02-14T01:33:31.874Z,7.10
2019-02-14T01:34:31.810Z,7.10
2019-02-14T01:35:31.799Z,6.90
2019-02-14T01:36:31.817Z,7.00
2019-02-14T01:37:31.788Z,6.70
2019-02-14T01:38:31.773Z,7.40
2019-02-14T01:39:31.799Z,6.80
2019-02-14T01:40:31.790Z,6.60
2019-02-14T01:41:31.749Z,7.00
2019-02-14T01:42:31.768Z,6.90
2019-02-14T01:43:31.708Z,6.90
2019-02-14T01:44:31.698Z,7.20
2019-02-14T01:45:31.708Z,7.10
2019-02-14T01:46:31.704Z,6.90
2019-02-14T01:47:31.708Z,6.60
2019-02-14T01:48:31.692Z,7.20
2019-02-14T01:49:31.723Z,6.90
2019-02-14T01:50:31.649Z,6.70
2019-02-14T01:51:31.632Z,7.10
2019-02-14T01:52:31.665Z,7.20
2019-02-14T01:53:31.631Z,6.60
2019-02-14T01:54:31.654Z,6.90
2019-02-14T01:55:32.616Z,6.90
2019-02-14T01:56:31.572Z,6.70
2019-02-14T01:57:31.569Z,6.80
2019-02-14T01:58:31.569Z,7.20
2019-02-14T01:59:31.580Z,6.60
2019-02-14T02:00:31.572Z,7.00
2019-02-14T02:01:31.523Z,6.90
2019-02-14T02:02:31.512Z,7.00
2019-02-14T02:03:31.509Z,6.70
2019-02-14T02:04:31.545Z,6.80
2019-02-14T02:05:31.470Z,6.60
2019-02-14T02:06:31.479Z,6.50
2019-02-14T02:07:31.451Z,6.70
2019-02-14T02:08:31.440Z,6.80
2019-02-14T02:09:31.436Z,6.80
2019-02-14T02:10:31.424Z,6.80
2019-02-14T02:11:31.419Z,7.10
2019-02-14T02:12:31.460Z,7.20
2019-02-14T02:13:31.417Z,6.80
2019-02-14T02:14:31.398Z,7.30
2019-02-14T02:15:31.384Z,7.10
2019-02-14T02:16:31.387Z,6.70
2019-02-14T02:17:31.394Z,7.00
2019-02-14T02:18:31.379Z,6.90
2019-02-14T02:19:31.332Z,7.10
2019-02-14T02:20:33.320Z,6.70
2019-02-14T02:21:31.327Z,6.60
2019-02-14T02:22:31.303Z,6.20
2019-02-14T02:23:31.330Z,6.40
2019-02-14T02:24:31.292Z,6.50
2019-02-14T02:25:31.290Z,7.20
2019-02-14T02:26:31.290Z,6.70
2019-02-14T02:27:31.283Z,7.10
2019-02-14T02:28:31.227Z,6.40
2019-02-14T02:29:31.231Z,6.70
2019-02-14T02:30:31.214Z,7.00
2019-02-14T02:31:31.237Z,6.30
2019-02-14T02:32:31.206Z,6.00
2019-02-14T02:33:31.189Z,6.30
2019-02-14T02:34:31.220Z,6.50
2019-02-14T02:35:31.155Z,6.40
2019-02-14T02:36:31.181Z,6.10
2019-02-14T02:37:31.151Z,6.70
2019-02-14T02:38:31.124Z,6.30
2019-02-14T02:39:31.134Z,6.40
2019-02-14T02:40:31.095Z,6.40
2019-02-14T02:41:31.131Z,6.60
2019-02-14T02:42:31.080Z,6.50
2019-02-14T02:43:31.116Z,6.40
2019-02-14T02:44:31.087Z,6.30
2019-02-14T02:45:31.043Z,6.60
2019-02-14T02:46:31.054Z,6.80
2019-02-14T02:47:31.033Z,7.10
2019-02-14T02:48:31.027Z,7.00
2019-02-14T02:49:31.045Z,7.20
2019-02-14T02:50:31.028Z,7.50
2019-02-14T02:51:31.004Z,6.40
2019-02-14T02:52:31.025Z,6.70
2019-02-14T02:53:30.988Z,6.90
2019-02-14T02:54:30.960Z,6.80
2019-02-14T02:55:30.968Z,6.20
2019-02-14T02:56:30.944Z,6.50
2019-02-14T02:57:30.958Z,6.60
2019-02-14T02:58:30.908Z,6.70
2019-02-14T02:59:30.913Z,6.70
2019-02-14T03:00:30.895Z,6.60
2019-02-14T03:01:30.933Z,6.50
2019-02-14T03:02:30.863Z,6.50
2019-02-14T03:03:30.922Z,6.60
2019-02-14T03:04:30.883Z,7.10
2019-02-14T03:05:30.830Z,7.10
2019-02-14T03:06:30.830Z,7.10
2019-02-14T03:07:30.830Z,7.00
2019-02-14T03:08:30.815Z,7.10
2019-02-14T03:09:30.846Z,6.80
2019-02-14T03:10:30.809Z,6.70
2019-02-14T03:11:30.769Z,6.40
2019-02-14T03:12:30.794Z,6.20
2019-02-14T03:13:30.824Z,6.70
2019-02-14T03:14:30.751Z,6.10
2019-02-14T03:15:30.754Z,7.10
2019-02-14T03:16:30.734Z,6.80
2019-02-14T03:17:30.747Z,6.90
2019-02-14T03:18:30.722Z,6.50
2019-02-14T03:19:30.753Z,6.50
2019-02-14T03:20:30.706Z,7.70
2019-02-14T03:21:30.682Z,6.90
2019-02-14T03:22:30.693Z,6.70
2019-02-14T03:23:30.730Z,7.60
2019-02-14T03:24:30.638Z,7.10
2019-02-14T03:25:30.646Z,7.00
2019-02-14T03:26:30.662Z,6.50
2019-02-14T03:27:30.671Z,6.80
2019-02-14T03:28:30.669Z,7.20
2019-02-14T03:29:30.617Z,6.70
2019-02-14T03:30:30.587Z,7.00
2019-02-14T03:31:30.581Z,6.70
2019-02-14T03:32:30.566Z,6.90
2019-02-14T03:33:30.630Z,6.80
2019-02-14T03:34:30.551Z,7.20
2019-02-14T03:35:30.522Z,6.90
2019-02-14T03:36:30.574Z,7.40
2019-02-14T03:37:30.508Z,7.00
2019-02-14T03:38:30.491Z,7.40
2019-02-14T03:39:30.489Z,6.50
2019-02-14T03:40:30.482Z,6.90
2019-02-14T03:41:30.481Z,6.90
2019-02-14T03:42:30.463Z,7.20
2019-02-14T03:43:30.482Z,7.00
2019-02-14T03:44:30.418Z,7.20
2019-02-14T03:45:30.434Z,7.50
2019-02-14T03:46:30.417Z,6.70
2019-02-14T03:47:30.411Z,7.20
2019-02-14T03:48:30.393Z,7.00
2019-02-14T03:49:30.402Z,7.50
2019-02-14T03:50:30.386Z,7.40
2019-02-14T03:51:30.364Z,7.20
2019-02-14T03:52:30.399Z,7.50
2019-02-14T03:53:30.346Z,7.00
2019-02-14T03:54:30.315Z,7.20
2019-02-14T03:55:30.360Z,7.00
2019-02-14T03:56:30.398Z,6.50
2019-02-14T03:57:30.309Z,6.60
2019-02-14T03:58:30.320Z,7.40
2019-02-14T03:59:30.285Z,7.00
2019-02-14T04:00:30.330Z,6.80
2019-02-14T04:01:30.278Z,7.80
2019-02-14T04:02:30.284Z,6.80
2019-02-14T04:03:30.256Z,7.20
2019-02-14T04:04:30.219Z,6.70
2019-02-14T04:05:30.212Z,7.00
2019-02-14T04:06:30.232Z,6.80
2019-02-14T04:07:30.218Z,6.80
2019-02-14T04:08:30.194Z,6.90
2019-02-14T04:09:30.189Z,7.10
2019-02-14T04:10:30.162Z,7.20
2019-02-14T04:11:30.153Z,7.60
2019-02-14T04:12:30.137Z,6.90
2019-02-14T04:13:30.170Z,7.20
2019-02-14T04:14:30.112Z,6.80
2019-02-14T04:15:30.130Z,7.30
2019-02-14T04:16:30.098Z,6.60
2019-02-14T04:17:30.090Z,6.80
2019-02-14T04:18:30.114Z,6.70
2019-02-14T04:19:30.063Z,6.80
2019-02-14T04:20:30.098Z,6.90
2019-02-14T04:21:30.052Z,6.80
2019-02-14T04:22:30.082Z,7.50
2019-02-14T04:23:30.038Z,7.10
2019-02-14T04:24:30.029Z,7.70
2019-02-14T04:25:29.998Z,7.10
2019-02-14T04:26:29.999Z,7.00
2019-02-14T04:27:29.991Z,6.70
2019-02-14T04:28:30.016Z,6.70
2019-02-14T04:29:29.976Z,6.80
2019-02-14T04:30:29.946Z,6.60
2019-02-14T04:31:29.972Z,6.90
2019-02-14T04:32:29.926Z,6.80
2019-02-14T04:33:29.945Z,6.50
2019-02-14T04:34:29.930Z,6.60
2019-02-14T04:35:29.916Z,6.50
2019-02-14T04:36:35.904Z,6.70
2019-02-14T04:37:30.863Z,7.30
2019-02-14T04:38:29.893Z,7.80
2019-02-14T04:39:29.867Z,6.60
2019-02-14T04:40:33.610Z,7.00
2019-02-14T04:41:29.829Z,6.40
2019-02-14T04:42:29.820Z,7.50
2019-02-14T04:43:29.804Z,6.80
2019-02-14T04:44:29.813Z,6.80
2019-02-14T04:45:29.813Z,7.20
2019-02-14T04:46:29.844Z,6.80
2019-02-14T04:47:29.768Z,7.60
2019-02-14T04:48:29.763Z,6.60
2019-02-14T04:49:29.803Z,7.10
2019-02-14T04:50:29.741Z,6.50
2019-02-14T04:51:29.724Z,6.80
2019-02-14T04:52:29.702Z,7.00
2019-02-14T04:53:29.733Z,6.90
2019-02-14T04:54:29.735Z,6.20
2019-02-14T04:55:29.721Z,6.80
2019-02-14T04:56:29.697Z,6.70
2019-02-14T04:57:29.660Z,6.60
2019-02-14T04:58:29.654Z,7.20
2019-02-14T04:59:29.731Z,6.90
2019-02-14T05:00:29.628Z,6.70
2019-02-14T05:01:29.616Z,7.10
2019-02-14T05:02:29.656Z,7.00
2019-02-14T05:03:29.627Z,6.70
2019-02-14T05:04:29.604Z,6.10
2019-02-14T05:05:29.575Z,7.00
2019-02-14T05:06:29.571Z,6.30
2019-02-14T05:07:29.603Z,6.80
2019-02-14T05:08:29.548Z,7.10
2019-02-14T05:09:29.535Z,6.70
2019-02-14T05:10:29.519Z,6.60
2019-02-14T05:11:29.525Z,6.80
2019-02-14T05:12:29.501Z,6.80
2019-02-14T05:13:29.552Z,7.20
2019-02-14T05:14:29.479Z,7.00
2019-02-14T05:15:29.478Z,6.50
2019-02-14T05:16:29.460Z,6.50
2019-02-14T05:17:29.465Z,6.40
2019-02-14T05:18:29.458Z,6.50
2019-02-14T05:19:29.418Z,6.70
2019-02-14T05:20:29.511Z,7.20
2019-02-14T05:21:29.403Z,7.10
2019-02-14T05:22:29.459Z,6.30
2019-02-14T05:23:29.453Z,6.90
2019-02-14T05:24:29.359Z,7.10
2019-02-14T05:25:29.364Z,7.10
2019-02-14T05:26:29.348Z,6.40
2019-02-14T05:27:29.335Z,6.60
2019-02-14T05:28:29.355Z,6.90
2019-02-14T05:29:29.332Z,7.20
2019-02-14T05:30:29.328Z,7.30
2019-02-14T05:31:29.331Z,7.20
2019-02-14T05:32:29.284Z,6.50
2019-02-14T05:33:29.269Z,6.70
2019-02-14T05:34:29.273Z,6.80
2019-02-14T05:35:29.248Z,7.30
2019-02-14T05:36:29.288Z,6.70
2019-02-14T05:37:29.274Z,6.90
2019-02-14T05:38:29.267Z,6.80
2019-02-14T05:39:29.250Z,6.90
2019-02-14T05:40:29.259Z,6.90
2019-02-14T05:41:29.233Z,6.70
2019-02-14T05:42:29.241Z,7.00
2019-02-14T05:43:29.225Z,7.60
2019-02-14T05:44:29.153Z,6.80
2019-02-14T05:45:29.154Z,6.80
2019-02-14T05:46:29.186Z,6.80
2019-02-14T05:47:29.130Z,6.80
2019-02-14T05:48:29.119Z,7.00
2019-02-14T05:49:29.158Z,7.00
2019-02-14T05:50:29.101Z,7.20
2019-02-14T05:51:29.128Z,7.40
2019-02-14T05:52:29.124Z,7.30
2019-02-14T05:53:29.065Z,7.10
2019-02-14T05:54:29.121Z,7.00
2019-02-14T05:55:29.039Z,7.10
2019-02-14T05:56:29.032Z,7.00
2019-02-14T05:57:29.077Z,7.00
2019-02-14T05:58:29.083Z,7.20
2019-02-14T05:59:29.005Z,6.40
2019-02-14T06:00:29.033Z,6.50
2019-02-14T06:01:28.997Z,6.30
2019-02-14T06:02:28.981Z,6.60
2019-02-14T06:03:28.963Z,7.10
2019-02-14T06:04:29.001Z,6.70
2019-02-14T06:05:28.926Z,6.90
2019-02-14T06:06:28.959Z,5.90
2019-02-14T06:07:28.914Z,6.90
2019-02-14T06:08:28.925Z,6.80
2019-02-14T06:09:28.921Z,7.20
2019-02-14T06:10:28.880Z,7.30
2019-02-14T06:11:28.914Z,7.20
2019-02-14T06:12:28.888Z,7.20
2019-02-14T06:13:28.892Z,7.60
2019-02-14T06:14:28.841Z,7.20
2019-02-14T06:15:28.910Z,7.40
2019-02-14T06:16:28.812Z,8.00
2019-02-14T06:17:28.819Z,8.40
2019-02-14T06:18:28.885Z,7.70
2019-02-14T06:19:28.803Z,7.20
2019-02-14T06:20:28.803Z,6.70
2019-02-14T06:21:28.766Z,6.80
2019-02-14T06:22:28.767Z,6.60
2019-02-14T06:23:30.137Z,7.00
2019-02-14T06:24:28.749Z,6.90
2019-02-14T06:25:28.774Z,6.60
2019-02-14T06:26:28.709Z,6.70
2019-02-14T06:27:28.709Z,7.30
2019-02-14T06:28:28.715Z,7.50
2019-02-14T06:29:28.705Z,6.90
2019-02-14T06:30:28.700Z,6.50
2019-02-14T06:31:28.659Z,6.60
2019-02-14T06:32:28.675Z,6.40
2019-02-14T06:33:28.640Z,6.20
2019-02-14T06:34:28.650Z,6.80
2019-02-14T06:35:28.655Z,6.90
2019-02-14T06:36:28.707Z,6.40
2019-02-14T06:37:28.611Z,6.70
2019-02-14T06:38:28.577Z,7.00
2019-02-14T06:39:28.574Z,6.40
2019-02-14T06:40:28.582Z,6.40
2019-02-14T06:41:28.551Z,6.70
2019-02-14T06:42:28.543Z,6.40
2019-02-14T06:43:28.540Z,6.10
2019-02-14T06:44:28.521Z,6.40
2019-02-14T06:45:28.522Z,6.20
2019-02-14T06:46:28.584Z,6.00
2019-02-14T06:47:28.531Z,6.20
2019-02-14T06:48:28.516Z,6.90
2019-02-14T06:49:28.511Z,6.40
2019-02-14T06:50:34.651Z,7.10
2019-02-14T06:51:29.466Z,6.80
2019-02-14T06:52:28.427Z,6.60
2019-02-14T06:53:28.470Z,6.60
2019-02-14T06:54:28.457Z,6.50
2019-02-14T06:55:28.408Z,6.50
2019-02-14T06:56:28.392Z,6.70
2019-02-14T06:57:28.413Z,6.00
2019-02-14T06:58:28.370Z,7.00
2019-02-14T06:59:28.398Z,6.30
2019-02-14T07:00:28.379Z,6.60
2019-02-14T07:01:28.354Z,6.90
2019-02-14T07:02:28.332Z,6.10
2019-02-14T07:03:28.321Z,6.80
2019-02-14T07:04:28.339Z,6.30
2019-02-14T07:05:28.309Z,6.10
2019-02-14T07:06:28.311Z,6.70
2019-02-14T07:07:28.294Z,6.60
2019-02-14T07:08:28.268Z,6.00
2019-02-14T07:09:28.264Z,7.00
2019-02-14T07:10:28.273Z,6.70
2019-02-14T07:11:28.322Z,7.00
2019-02-14T07:12:28.231Z,6.50
2019-02-14T07:13:28.216Z,6.70
2019-02-14T07:14:28.207Z,6.20
2019-02-14T07:15:28.198Z,6.40
2019-02-14T07:16:28.235Z,6.20
2019-02-14T07:17:28.182Z,6.80
2019-02-14T07:18:28.218Z,6.30
2019-02-14T07:19:28.154Z,6.20
2019-02-14T07:20:28.135Z,6.20
2019-02-14T07:21:28.208Z,6.10
2019-02-14T07:22:28.160Z,6.30
2019-02-14T07:23:28.150Z,5.90
2019-02-14T07:24:28.099Z,5.80
2019-02-14T07:25:28.171Z,6.00
2019-02-14T07:26:28.078Z,6.20
2019-02-14T07:27:28.102Z,6.10
2019-02-14T07:28:28.067Z,5.80
2019-02-14T07:29:28.040Z,6.20
2019-02-14T07:30:28.055Z,6.10
2019-02-14T07:31:28.031Z,5.70
2019-02-14T07:32:28.025Z,6.60
2019-02-14T07:33:28.018Z,7.20
2019-02-14T07:34:28.004Z,7.60
2019-02-14T07:35:28.022Z,7.90
2019-02-14T07:36:28.007Z,8.70
2019-02-14T07:37:27.975Z,8.00
2019-02-14T07:38:27.950Z,8.70
2019-02-14T07:39:27.966Z,8.20
2019-02-14T07:40:29.696Z,9.00
2019-02-14T07:41:27.921Z,9.00
2019-02-14T07:42:27.909Z,8.10
2019-02-14T07:43:27.893Z,8.10
2019-02-14T07:44:27.884Z,7.60
2019-02-14T07:45:27.899Z,7.70
2019-02-14T07:46:27.865Z,7.40
2019-02-14T07:47:27.850Z,7.90
2019-02-14T07:48:27.857Z,7.30
2019-02-14T07:49:27.822Z,6.90
2019-02-14T07:50:27.829Z,7.50
2019-02-14T07:51:27.807Z,8.40
2019-02-14T07:52:27.800Z,7.70
2019-02-14T07:53:27.784Z,8.10
2019-02-14T07:54:27.788Z,8.30
2019-02-14T07:55:27.777Z,7.60
2019-02-14T07:56:27.765Z,7.60
2019-02-14T07:57:27.765Z,7.10
2019-02-14T07:58:27.757Z,6.50
2019-02-14T07:59:27.721Z,7.00
2019-02-14T08:00:27.719Z,7.60
2019-02-14T08:01:27.714Z,8.10
2019-02-14T08:02:27.693Z,7.60
2019-02-14T08:03:27.682Z,7.50
2019-02-14T08:04:27.661Z,7.50
2019-02-14T08:05:27.672Z,7.70
2019-02-14T08:06:27.645Z,7.40
2019-02-14T08:07:35.495Z,7.50
2019-02-14T08:08:28.618Z,7.30
2019-02-14T08:09:27.606Z,7.60
2019-02-14T08:10:27.592Z,7.50
2019-02-14T08:11:27.600Z,7.30
2019-02-14T08:12:27.576Z,7.30
2019-02-14T08:13:27.562Z,6.80
2019-02-14T08:14:27.567Z,7.50
2019-02-14T08:15:27.542Z,7.40
2019-02-14T08:16:27.542Z,8.00
2019-02-14T08:17:27.523Z,7.80
2019-02-14T08:18:27.531Z,8.60
2019-02-14T08:19:27.505Z,8.20
2019-02-14T08:20:27.500Z,8.40
2019-02-14T08:21:27.475Z,9.30
2019-02-14T08:22:27.475Z,8.50
2019-02-14T08:23:27.465Z,8.60
2019-02-14T08:24:27.453Z,8.70
2019-02-14T08:25:27.439Z,9.00
2019-02-14T08:26:27.432Z,8.90
2019-02-14T08:27:27.407Z,9.60
2019-02-14T08:28:27.412Z,9.30
2019-02-14T08:29:27.393Z,8.70
2019-02-14T08:30:27.383Z,9.00
2019-02-14T08:31:27.384Z,9.00
2019-02-14T08:32:27.378Z,9.00
2019-02-14T08:33:27.355Z,9.60
2019-02-14T08:34:27.330Z,9.50
2019-02-14T08:35:27.319Z,8.40
2019-02-14T08:36:27.312Z,9.60
2019-02-14T08:37:27.310Z,9.10
2019-02-14T08:38:27.308Z,9.20
2019-02-14T08:39:27.283Z,9.50
2019-02-14T08:40:27.270Z,9.30
2019-02-14T08:41:27.257Z,9.70
2019-02-14T08:42:27.254Z,9.70
2019-02-14T08:43:27.268Z,9.10
2019-02-14T08:44:27.230Z,7.30
2019-02-14T08:45:27.223Z,6.70
2019-02-14T08:46:27.214Z,6.40
2019-02-14T08:47:27.193Z,6.80
2019-02-14T08:48:27.184Z,7.20
2019-02-14T08:49:27.183Z,7.20
2019-02-14T08:50:27.169Z,7.20
2019-02-14T08:51:27.180Z,5.60
2019-02-14T08:52:27.141Z,5.70
2019-02-14T08:53:27.133Z,6.20
2019-02-14T08:54:27.126Z,6.00
2019-02-14T08:55:27.104Z,6.40
2019-02-14T08:56:27.098Z,5.70
2019-02-14T08:57:27.085Z,5.20
2019-02-14T08:58:27.077Z,5.80
2019-02-14T08:59:27.075Z,4.90
2019-02-14T09:00:27.051Z,5.10
2019-02-14T09:01:27.039Z,5.20
2019-02-14T09:02:27.042Z,5.60
2019-02-14T09:03:27.020Z,5.30
2019-02-14T09:04:27.012Z,5.20
2019-02-14T09:05:27.007Z,5.40
2019-02-14T09:06:26.981Z,5.40
2019-02-14T09:07:26.982Z,5.80
2019-02-14T09:08:26.969Z,5.80
2019-02-14T09:09:26.956Z,5.20
2019-02-14T09:10:26.966Z,5.00
2019-02-14T09:11:26.975Z,4.90
2019-02-14T09:12:26.923Z,4.70
2019-02-14T09:13:26.907Z,4.50
2019-02-14T09:14:26.894Z,4.60
2019-02-14T09:15:26.901Z,5.10
2019-02-14T09:16:26.886Z,5.00
2019-02-14T09:17:26.863Z,5.00
2019-02-14T09:18:26.852Z,4.80
2019-02-14T09:19:26.839Z,5.30
2019-02-14T09:20:26.839Z,5.20
2019-02-14T09:21:26.822Z,4.70
2019-02-14T09:22:26.813Z,4.50
2019-02-14T09:23:26.801Z,4.40
2019-02-14T09:24:26.789Z,4.40
2019-02-14T09:25:26.790Z,4.00
2019-02-14T09:26:26.759Z,4.70
2019-02-14T09:27:26.749Z,4.40
2019-02-14T09:28:26.750Z,4.30
2019-02-14T09:29:26.731Z,4.80
2019-02-14T09:30:26.742Z,4.60
2019-02-14T09:31:26.726Z,5.40
2019-02-14T09:32:26.705Z,7.00
2019-02-14T09:33:26.693Z,7.00
2019-02-14T09:34:26.690Z,6.80
2019-02-14T09:35:27.195Z,7.50
2019-02-14T09:36:26.656Z,7.00
2019-02-14T09:37:26.664Z,7.40
2019-02-14T09:38:26.631Z,7.40
2019-02-14T09:39:26.622Z,8.00
2019-02-14T09:40:26.644Z,7.60
2019-02-14T09:41:26.600Z,7.50
2019-02-14T09:42:26.598Z,7.20
2019-02-14T09:43:29.848Z,7.00
2019-02-14T09:44:26.569Z,7.60
2019-02-14T09:45:26.570Z,7.90
2019-02-14T09:46:26.564Z,7.50
2019-02-14T09:47:26.539Z,8.20
2019-02-14T09:48:26.526Z,8.20
2019-02-14T09:49:26.526Z,8.60
2019-02-14T09:50:26.506Z,8.20
2019-02-14T09:51:26.500Z,8.30
2019-02-14T09:52:26.486Z,9.10
2019-02-14T09:53:26.492Z,8.30
2019-02-14T09:54:26.475Z,8.40
2019-02-14T09:55:26.448Z,8.50
2019-02-14T09:56:26.482Z,7.80
2019-02-14T09:57:26.437Z,7.90
2019-02-14T09:58:26.469Z,7.70
2019-02-14T09:59:26.397Z,7.30
2019-02-14T10:00:26.414Z,6.90
2019-02-14T10:01:26.384Z,6.60
2019-02-14T10:02:26.384Z,7.20
2019-02-14T10:03:26.352Z,6.30
2019-02-14T10:04:26.351Z,6.30
2019-02-14T10:05:26.339Z,6.60
2019-02-14T10:06:26.347Z,5.40
2019-02-14T10:07:26.329Z,4.40
2019-02-14T10:08:26.324Z,4.60
2019-02-14T10:09:26.294Z,4.20
2019-02-14T10:10:26.315Z,3.80
2019-02-14T10:11:26.273Z,3.40
2019-02-14T10:12:26.278Z,3.60
2019-02-14T10:13:26.253Z,3.90
2019-02-14T10:14:26.248Z,3.70
2019-02-14T10:15:26.235Z,3.60
2019-02-14T10:16:26.234Z,3.70
2019-02-14T10:17:26.207Z,3.60
2019-02-14T10:18:26.196Z,3.50
2019-02-14T10:19:26.188Z,3.60
2019-02-14T10:20:26.203Z,3.50
2019-02-14T10:21:26.214Z,3.40
2019-02-14T10:22:26.230Z,3.60
2019-02-14T10:23:26.173Z,3.80
2019-02-14T10:24:26.129Z,3.30
2019-02-14T10:25:26.139Z,3.30
2019-02-14T10:26:26.113Z,3.40
2019-02-14T10:27:26.102Z,4.20
2019-02-14T10:28:26.100Z,3.60
2019-02-14T10:29:26.099Z,3.30
2019-02-14T10:30:26.078Z,3.40
2019-02-14T10:31:26.068Z,3.40
2019-02-14T10:32:26.130Z,3.30
2019-02-14T10:33:26.090Z,3.30
2019-02-14T10:34:26.034Z,3.00
2019-02-14T10:35:26.043Z,3.20
2019-02-14T10:36:25.997Z,3.00
2019-02-14T10:37:26.066Z,3.20
2019-02-14T10:38:26.012Z,2.90
2019-02-14T10:39:25.969Z,3.20
2019-02-14T10:40:25.955Z,3.30
2019-02-14T10:41:25.952Z,3.10
2019-02-14T10:42:25.935Z,3.30
2019-02-14T10:43:25.937Z,3.40
2019-02-14T10:44:25.909Z,3.40
2019-02-14T10:45:25.898Z,3.00
2019-02-14T10:46:25.896Z,3.30
2019-02-14T10:47:25.878Z,3.50
2019-02-14T10:48:25.881Z,2.80
2019-02-14T10:49:25.886Z,2.70
2019-02-14T10:50:25.895Z,2.70
2019-02-14T10:51:25.884Z,2.50
2019-02-14T10:52:25.871Z,2.80
2019-02-14T10:53:25.813Z,3.00
2019-02-14T10:54:25.817Z,2.90
2019-02-14T10:55:25.803Z,3.10
2019-02-14T10:56:25.776Z,2.90
2019-02-14T10:57:25.794Z,3.00
2019-02-14T10:58:25.757Z,3.00
2019-02-14T10:59:25.752Z,2.80
2019-02-14T11:00:25.743Z,2.90
2019-02-14T11:01:25.718Z,2.90
2019-02-14T11:02:25.708Z,3.30
2019-02-14T11:03:25.696Z,2.90
2019-02-14T11:04:25.700Z,3.30
2019-02-14T11:05:25.713Z,3.00
2019-02-14T11:06:25.675Z,2.50
2019-02-14T11:07:25.654Z,2.50
2019-02-14T11:08:31.693Z,2.80
2019-02-14T11:09:26.639Z,2.60
2019-02-14T11:10:25.646Z,2.90
2019-02-14T11:11:25.616Z,3.00
2019-02-14T11:12:25.602Z,2.70
2019-02-14T11:13:25.586Z,2.80
2019-02-14T11:14:29.223Z,2.80
2019-02-14T11:15:25.582Z,2.80
2019-02-14T11:16:25.560Z,2.70
2019-02-14T11:17:25.551Z,2.80
2019-02-14T11:18:25.540Z,2.80
2019-02-14T11:19:25.530Z,2.80
2019-02-14T11:20:25.537Z,2.60
2019-02-14T11:21:25.502Z,2.70
2019-02-14T11:22:25.498Z,2.90
2019-02-14T11:23:25.485Z,3.20
2019-02-14T11:24:25.472Z,3.20
2019-02-14T11:25:25.461Z,3.60
2019-02-14T11:26:25.457Z,3.10
2019-02-14T11:27:25.435Z,3.10
2019-02-14T11:28:25.426Z,3.30
2019-02-14T11:29:25.428Z,3.20
2019-02-14T11:30:25.415Z,3.40
2019-02-14T11:31:25.410Z,2.90
2019-02-14T11:32:25.402Z,2.80
2019-02-14T11:33:25.383Z,3.30
2019-02-14T11:34:25.358Z,3.20
2019-02-14T11:35:25.353Z,3.20
2019-02-14T11:36:25.371Z,3.00
2019-02-14T11:37:25.881Z,2.80
2019-02-14T11:38:25.326Z,2.40
2019-02-14T11:39:25.311Z,3.10
2019-02-14T11:40:25.305Z,3.10
2019-02-14T11:41:25.303Z,2.90
2019-02-14T11:42:25.298Z,2.50
2019-02-14T11:43:25.266Z,2.60
2019-02-14T11:44:25.263Z,2.30
2019-02-14T11:45:25.240Z,2.60
2019-02-14T11:46:25.240Z,2.90
2019-02-14T11:47:25.227Z,2.60
2019-02-14T11:48:25.209Z,2.70
2019-02-14T11:49:25.198Z,2.80
2019-02-14T11:50:25.207Z,2.50
2019-02-14T11:51:25.192Z,2.60
2019-02-14T11:52:25.176Z,3.10
2019-02-14T11:53:25.163Z,3.10
2019-02-14T11:54:25.137Z,3.10
2019-02-14T11:55:25.135Z,2.90
2019-02-14T11:56:25.157Z,3.10
2019-02-14T11:57:25.144Z,3.00
2019-02-14T11:58:25.093Z,3.00
2019-02-14T11:59:25.093Z,3.10
2019-02-14T12:00:25.074Z,3.30
2019-02-14T12:01:25.108Z,3.20
2019-02-14T12:02:25.080Z,2.80
2019-02-14T12:03:25.054Z,3.20
2019-02-14T12:04:25.108Z,2.90
2019-02-14T12:05:25.043Z,2.80
2019-02-14T12:06:25.014Z,3.00
2019-02-14T12:07:25.003Z,3.10
2019-02-14T12:08:24.987Z,2.90
2019-02-14T12:09:24.981Z,3.10
2019-02-14T12:10:25.002Z,3.20
2019-02-14T12:11:24.953Z,2.70
2019-02-14T12:12:25.783Z,3.30
2019-02-14T12:13:24.941Z,2.70
2019-02-14T12:14:24.994Z,2.90
2019-02-14T12:15:24.926Z,2.40
2019-02-14T12:16:24.930Z,2.60
2019-02-14T12:17:24.892Z,2.40
2019-02-14T12:18:24.883Z,2.70
2019-02-14T12:19:24.878Z,2.60
2019-02-14T12:20:24.856Z,2.80
2019-02-14T12:21:24.875Z,2.90
2019-02-14T12:22:24.867Z,2.50
2019-02-14T12:23:24.851Z,3.00
2019-02-14T12:24:24.845Z,2.70
2019-02-14T12:25:24.801Z,2.50
2019-02-14T12:26:24.810Z,2.60
2019-02-14T12:27:24.785Z,2.30
2019-02-14T12:28:24.776Z,2.60
2019-02-14T12:29:24.783Z,2.50
2019-02-14T12:30:24.775Z,2.50
2019-02-14T12:31:24.740Z,2.40
2019-02-14T12:32:24.730Z,2.60
2019-02-14T12:33:24.727Z,2.10
2019-02-14T12:34:24.710Z,2.30
2019-02-14T12:35:24.735Z,2.10
2019-02-14T12:36:24.720Z,2.20
2019-02-14T12:37:24.678Z,2.40
2019-02-14T12:38:24.666Z,2.40
2019-02-14T12:39:24.653Z,1.90
2019-02-14T12:40:24.658Z,2.30
2019-02-14T12:41:24.639Z,2.10
2019-02-14T12:42:24.630Z,2.10
2019-02-14T12:43:24.610Z,2.00
2019-02-14T12:44:24.594Z,2.10
2019-02-14T12:45:26.096Z,2.00
2019-02-14T12:46:24.577Z,2.10
2019-02-14T12:47:24.568Z,1.90
2019-02-14T12:48:24.583Z,2.60
2019-02-14T12:49:24.543Z,1.90
2019-02-14T12:50:24.530Z,1.80
2019-02-14T12:51:24.534Z,2.00
2019-02-14T12:52:24.510Z,2.00
2019-02-14T12:53:24.521Z,1.90
2019-02-14T12:54:24.522Z,1.80
2019-02-14T12:55:24.481Z,2.10
2019-02-14T12:56:24.490Z,1.90
2019-02-14T12:57:24.453Z,1.90
2019-02-14T12:58:24.447Z,2.00
2019-02-14T12:59:24.440Z,1.80
2019-02-14T13:00:24.440Z,1.60
2019-02-14T13:01:24.420Z,1.70
2019-02-14T13:02:24.400Z,1.70
2019-02-14T13:03:24.387Z,1.60
2019-02-14T13:04:24.384Z,1.60
2019-02-14T13:05:24.394Z,1.40
2019-02-14T13:06:24.375Z,1.70
2019-02-14T13:07:24.367Z,1.80
2019-02-14T13:08:24.344Z,1.70
2019-02-14T13:09:24.323Z,2.00
2019-02-14T13:10:24.336Z,1.80
2019-02-14T13:11:24.302Z,1.50
2019-02-14T13:12:24.300Z,1.70
2019-02-14T13:13:24.287Z,1.70
2019-02-14T13:14:24.275Z,1.70
2019-02-14T13:15:24.257Z,1.70
2019-02-14T13:16:24.276Z,1.90
2019-02-14T13:17:24.247Z,1.70
2019-02-14T13:18:24.238Z,1.70